La rose des vents
Donnes mto: Semaine 08/12/08 - 14/12/08 (S 50)
Date Horaire Temp. E. Hum. E. P.atmo. Pluie Vent 1mn Direction Ensoleilleme Ev.Tr. Solaire P. de rose Temp au vent Rafales
08/12/2008 00:00 6,1 C 54 % 1021,7 hPa 0,0 l/m 1,5 km/h (1 Bft) O-NO 0,00 h 0,051 mm 0 W/m -2,6 C 6,0 C 2,3 km/h (1 Bft)
08/12/2008 01:00 6,2 C 56 % 1021,7 hPa 0,0 l/m 4,8 km/h (1 Bft) O 0,00 h 0,025 mm 0 W/m -2,0 C 5,5 C 6,3 km/h (2 Bft)
08/12/2008 02:00 5,0 C 61 % 1022,0 hPa 0,0 l/m 6,2 km/h (2 Bft) N-NO 0,00 h 0,051 mm 0 W/m -2,0 C 3,7 C 8,6 km/h (2 Bft)
08/12/2008 03:00 5,6 C 58 % 1022,2 hPa 0,0 l/m 5,7 km/h (1 Bft) NO 0,00 h 0,051 mm 0 W/m -2,1 C 4,5 C 8,1 km/h (2 Bft)
08/12/2008 04:00 5,6 C 57 % 1022,5 hPa 0,0 l/m 5,5 km/h (1 Bft) NO 0,00 h 0,051 mm 0 W/m -2,2 C 4,6 C 7,6 km/h (2 Bft)
08/12/2008 05:00 5,8 C 55 % 1022,8 hPa 0,0 l/m 4,2 km/h (1 Bft) NO 0,00 h 0,051 mm 0 W/m -2,6 C 5,3 C 5,8 km/h (1 Bft)
08/12/2008 06:00 5,5 C 55 % 1023,2 hPa 0,0 l/m 4,7 km/h (1 Bft) NO 0,00 h 0,051 mm 0 W/m -2,9 C 4,8 C 6,7 km/h (2 Bft)
08/12/2008 07:00 5,1 C 56 % 1023,6 hPa 0,0 l/m 5,0 km/h (1 Bft) O-NO 0,00 h 0,051 mm 8 W/m -2,9 C 4,2 C 8,0 km/h (2 Bft)
08/12/2008 08:00 5,8 C 54 % 1023,9 hPa 0,0 l/m 5,5 km/h (1 Bft) NO 0,93 h 0,025 mm 67 W/m -2,7 C 4,8 C 7,6 km/h (2 Bft)
08/12/2008 09:00 8,4 C 48 % 1024,2 hPa 0,0 l/m 3,0 km/h (1 Bft) NO 1,00 h 0,051 mm 196 W/m -2,1 C 8,1 C 4,6 km/h (1 Bft)
08/12/2008 10:00 10,3 C 44 % 1024,6 hPa 0,0 l/m 0,5 km/h (0 Bft) N-NO 1,00 h 0,102 mm 304 W/m -1,5 C 10,3 C 1,8 km/h (1 Bft)
08/12/2008 11:00 11,4 C 42 % 1024,8 hPa 0,0 l/m 2,7 km/h (1 Bft) NE 1,00 h 0,152 mm 375 W/m -0,9 C 11,4 C 4,8 km/h (1 Bft)
08/12/2008 12:00 12,4 C 39 % 1024,3 hPa 0,0 l/m 4,4 km/h (1 Bft) NE 1,00 h 0,203 mm 397 W/m -1,2 C 12,4 C 6,5 km/h (2 Bft)
08/12/2008 13:00 13,2 C 33 % 1023,8 hPa 0,0 l/m 5,5 km/h (1 Bft) E-NE 1,00 h 0,229 mm 365 W/m -2,6 C 13,2 C 8,3 km/h (2 Bft)
08/12/2008 14:00 13,2 C 37 % 1023,3 hPa 0,0 l/m 3,3 km/h (1 Bft) E 1,00 h 0,229 mm 282 W/m -1,2 C 13,2 C 5,7 km/h (1 Bft)
08/12/2008 15:00 12,5 C 48 % 1022,9 hPa 0,0 l/m 1,8 km/h (1 Bft) E 1,00 h 0,178 mm 164 W/m 1,9 C 12,5 C 3,5 km/h (1 Bft)
08/12/2008 16:00 11,8 C 51 % 1022,8 hPa 0,0 l/m 1,1 km/h (1 Bft) E 0,73 h 0,102 mm 40 W/m 1,8 C 11,8 C 2,5 km/h (1 Bft)
08/12/2008 17:00 8,2 C 58 % 1022,9 hPa 0,0 l/m 2,4 km/h (1 Bft) N 0,00 h 0,025 mm 0 W/m 0,5 C 8,1 C 4,2 km/h (1 Bft)
08/12/2008 18:00 7,2 C 60 % 1023,0 hPa 0,0 l/m 5,5 km/h (1 Bft) NO 0,00 h 0,025 mm 0 W/m -0,1 C 6,4 C 8,0 km/h (2 Bft)
08/12/2008 19:00 6,8 C 60 % 1023,1 hPa 0,0 l/m 5,1 km/h (1 Bft) NO 0,00 h 0,051 mm 0 W/m -0,4 C 6,1 C 7,1 km/h (2 Bft)
08/12/2008 20:00 6,6 C 58 % 1023,0 hPa 0,0 l/m 5,6 km/h (1 Bft) NO 0,00 h 0,051 mm 0 W/m -1,0 C 5,7 C 7,7 km/h (2 Bft)
08/12/2008 21:00 6,3 C 58 % 1022,9 hPa 0,0 l/m 5,7 km/h (1 Bft) NO 0,00 h 0,051 mm 0 W/m -1,4 C 5,3 C 7,6 km/h (2 Bft)
08/12/2008 22:00 6,3 C 55 % 1022,5 hPa 0,0 l/m 5,6 km/h (1 Bft) NO 0,00 h 0,051 mm 0 W/m -2,2 C 5,4 C 7,5 km/h (2 Bft)
08/12/2008 23:00 5,9 C 55 % 1022,4 hPa 0,0 l/m 6,2 km/h (2 Bft) O-NO 0,00 h 0,051 mm 0 W/m -2,5 C 4,7 C 9,2 km/h (2 Bft)
09/12/2008 00:00 6,0 C 55 % 1022,1 hPa 0,0 l/m 7,3 km/h (2 Bft) NO 0,00 h 0,051 mm 0 W/m -2,4 C 4,5 C 10,7 km/h (2 Bft)
09/12/2008 01:00 5,6 C 55 % 1021,6 hPa 0,0 l/m 6,9 km/h (2 Bft) NO 0,00 h 0,051 mm 0 W/m -2,7 C 4,2 C 9,8 km/h (2 Bft)
09/12/2008 02:00 5,7 C 50 % 1020,9 hPa 0,0 l/m 6,7 km/h (2 Bft) N-NO 0,00 h 0,051 mm 0 W/m -3,8 C 4,4 C 10,0 km/h (2 Bft)
09/12/2008 03:00 5,7 C 45 % 1020,6 hPa 0,0 l/m 4,7 km/h (1 Bft) N-NO 0,00 h 0,051 mm 0 W/m -5,3 C 5,0 C 6,6 km/h (2 Bft)
09/12/2008 04:00 5,3 C 42 % 1020,0 hPa 0,0 l/m 4,3 km/h (1 Bft) N-NO 0,00 h 0,051 mm 0 W/m -6,4 C 4,8 C 6,3 km/h (2 Bft)
09/12/2008 05:00 5,2 C 43 % 1019,8 hPa 0,0 l/m 4,6 km/h (1 Bft) N-NO 0,00 h 0,051 mm 0 W/m -6,3 C 4,5 C 6,4 km/h (2 Bft)
09/12/2008 06:00 5,3 C 48 % 1019,7 hPa 0,0 l/m 4,0 km/h (1 Bft) N-NO 0,00 h 0,051 mm 0 W/m -4,9 C 4,9 C 6,7 km/h (2 Bft)
09/12/2008 07:00 5,1 C 59 % 1019,8 hPa 0,0 l/m 2,7 km/h (1 Bft) N 0,00 h 0,051 mm 5 W/m -2,3 C 5,0 C 5,5 km/h (1 Bft)
09/12/2008 08:00 5,1 C 66 % 1019,9 hPa 0,0 l/m 3,3 km/h (1 Bft) N 0,03 h 0,025 mm 21 W/m -0,8 C 4,9 C 5,7 km/h (1 Bft)
09/12/2008 09:00 6,4 C 68 % 1019,9 hPa 0,0 l/m 3,3 km/h (1 Bft) N 0,00 h 0,025 mm 65 W/m 1,1 C 6,2 C 5,3 km/h (1 Bft)
09/12/2008 10:00 7,9 C 66 % 1020,0 hPa 0,0 l/m 2,4 km/h (1 Bft) N 0,00 h 0,051 mm 113 W/m 1,9 C 7,9 C 4,5 km/h (1 Bft)
09/12/2008 11:00 8,7 C 61 % 1019,5 hPa 0,0 l/m 3,0 km/h (1 Bft) N 0,00 h 0,051 mm 121 W/m 1,6 C 8,6 C 5,5 km/h (1 Bft)
09/12/2008 12:00 9,5 C 57 % 1018,5 hPa 0,0 l/m 3,3 km/h (1 Bft) N-NE 0,00 h 0,076 mm 149 W/m 1,4 C 9,5 C 5,4 km/h (1 Bft)
09/12/2008 13:00 9,4 C 52 % 1017,5 hPa 0,0 l/m 3,9 km/h (1 Bft) N-NE 0,00 h 0,102 mm 104 W/m 0,1 C 9,3 C 5,7 km/h (1 Bft)
09/12/2008 14:00 9,1 C 55 % 1016,6 hPa 0,0 l/m 3,0 km/h (1 Bft) N-NE 0,00 h 0,076 mm 75 W/m 0,5 C 9,1 C 4,6 km/h (1 Bft)
09/12/2008 15:00 8,9 C 55 % 1015,9 hPa 0,0 l/m 2,6 km/h (1 Bft) N-NE 0,00 h 0,051 mm 54 W/m 0,4 C 8,9 C 4,3 km/h (1 Bft)
09/12/2008 16:00 8,6 C 56 % 1015,4 hPa 0,0 l/m 2,0 km/h (1 Bft) N 0,03 h 0,051 mm 20 W/m 0,4 C 8,6 C 3,9 km/h (1 Bft)
09/12/2008 17:00 8,5 C 54 % 1015,0 hPa 0,0 l/m 1,1 km/h (1 Bft) N-NO 0,00 h 0,025 mm 0 W/m -0,2 C 8,5 C 2,6 km/h (1 Bft)
09/12/2008 18:00 8,6 C 54 % 1014,7 hPa 0,0 l/m 1,7 km/h (1 Bft) N 0,00 h 0,025 mm 0 W/m -0,1 C 8,5 C 3,3 km/h (1 Bft)
09/12/2008 19:00 8,8 C 55 % 1014,1 hPa 0,0 l/m 1,7 km/h (1 Bft) E 0,00 h 0,025 mm 0 W/m 0,4 C 8,8 C 2,8 km/h (1 Bft)
09/12/2008 20:00 8,9 C 57 % 1013,2 hPa 0,0 l/m 1,8 km/h (1 Bft) N-NO 0,00 h 0,025 mm 0 W/m 0,8 C 8,9 C 3,6 km/h (1 Bft)
09/12/2008 21:00 8,4 C 60 % 1012,4 hPa 0,2 l/m 3,6 km/h (1 Bft) N-NE 0,00 h 0,025 mm 0 W/m 1,0 C 8,0 C 5,6 km/h (1 Bft)
09/12/2008 22:00 7,1 C 71 % 1011,7 hPa 1,8 l/m 5,5 km/h (1 Bft) N-NE 0,00 h 0,051 mm 0 W/m 2,2 C 6,3 C 7,9 km/h (2 Bft)
09/12/2008 23:00 6,1 C 82 % 1010,8 hPa 2,4 l/m 5,9 km/h (2 Bft) N 0,00 h 0,025 mm 0 W/m 3,3 C 5,0 C 10,0 km/h (2 Bft)
10/12/2008 00:00 5,8 C 88 % 1009,8 hPa 1,4 l/m 5,5 km/h (1 Bft) N 0,00 h 0,025 mm 0 W/m 4,0 C 4,9 C 9,8 km/h (2 Bft)
10/12/2008 01:00 5,7 C 90 % 1008,4 hPa 1,0 l/m 3,5 km/h (1 Bft) N 0,00 h 0,025 mm 0 W/m 4,2 C 5,5 C 6,1 km/h (2 Bft)
10/12/2008 02:00 6,2 C 91 % 1007,1 hPa 2,2 l/m 3,9 km/h (1 Bft) N 0,00 h 0,025 mm 0 W/m 4,9 C 5,8 C 7,2 km/h (2 Bft)
10/12/2008 03:00 6,6 C 92 % 1005,8 hPa 3,4 l/m 3,8 km/h (1 Bft) N-NE 0,00 h 0,000 mm 0 W/m 5,4 C 6,3 C 6,2 km/h (2 Bft)
10/12/2008 04:00 6,7 C 93 % 1004,6 hPa 2,4 l/m 5,4 km/h (1 Bft) N-NE 0,00 h 0,000 mm 0 W/m 5,7 C 5,9 C 8,6 km/h (2 Bft)
10/12/2008 05:00 6,8 C 93 % 1003,0 hPa 0,8 l/m 8,9 km/h (2 Bft) N-NE 0,00 h 0,025 mm 0 W/m 5,7 C 5,0 C 13,9 km/h (3 Bft)
10/12/2008 06:00 6,5 C 94 % 1002,1 hPa 2,4 l/m 8,2 km/h (2 Bft) N-NE 0,00 h 0,025 mm 0 W/m 5,6 C 4,9 C 13,6 km/h (3 Bft)
10/12/2008 07:00 6,8 C 94 % 1001,4 hPa 4,2 l/m 8,8 km/h (2 Bft) N-NE 0,00 h 0,025 mm 0 W/m 5,9 C 5,1 C 13,3 km/h (3 Bft)
10/12/2008 08:00 7,1 C 95 % 1001,0 hPa 3,2 l/m 8,7 km/h (2 Bft) N-NE 0,00 h 0,000 mm 12 W/m 6,3 C 5,5 C 13,3 km/h (3 Bft)
10/12/2008 09:00 7,1 C 95 % 1001,3 hPa 1,8 l/m 7,4 km/h (2 Bft) N-NE 0,00 h 0,025 mm 23 W/m 6,4 C 5,8 C 11,7 km/h (2 Bft)
10/12/2008 10:00 7,0 C 95 % 1001,5 hPa 0,6 l/m 8,3 km/h (2 Bft) N-NE 0,00 h 0,025 mm 30 W/m 6,3 C 5,5 C 12,5 km/h (3 Bft)
10/12/2008 11:00 6,7 C 95 % 1001,5 hPa 1,0 l/m 8,4 km/h (2 Bft) NE 0,00 h 0,025 mm 37 W/m 5,9 C 5,0 C 12,8 km/h (3 Bft)
10/12/2008 12:00 6,6 C 95 % 1001,3 hPa 0,2 l/m 5,8 km/h (2 Bft) NE 0,00 h 0,025 mm 36 W/m 5,9 C 5,7 C 8,1 km/h (2 Bft)
10/12/2008 13:00 6,7 C 95 % 1001,2 hPa 0,4 l/m 5,7 km/h (1 Bft) NE 0,00 h 0,025 mm 28 W/m 6,0 C 5,8 C 8,5 km/h (2 Bft)
10/12/2008 14:00 6,9 C 96 % 1001,0 hPa 0,6 l/m 7,7 km/h (2 Bft) N-NE 0,00 h 0,025 mm 22 W/m 6,3 C 5,5 C 12,6 km/h (3 Bft)
10/12/2008 15:00 7,3 C 96 % 1001,2 hPa 1,0 l/m 8,7 km/h (2 Bft) N-NE 0,00 h 0,025 mm 12 W/m 6,7 C 5,7 C 14,8 km/h (3 Bft)
10/12/2008 16:00 7,3 C 96 % 1001,3 hPa 0,8 l/m 8,8 km/h (2 Bft) NE 0,00 h 0,025 mm 5 W/m 6,7 C 5,7 C 14,6 km/h (3 Bft)
10/12/2008 17:00 7,2 C 96 % 1001,5 hPa 0,4 l/m 10,1 km/h (2 Bft) N-NE 0,00 h 0,000 mm 0 W/m 6,6 C 5,3 C 16,2 km/h (3 Bft)
10/12/2008 18:00 7,2 C 96 % 1001,6 hPa 2,4 l/m 8,0 km/h (2 Bft) N-NE 0,00 h 0,025 mm 0 W/m 6,6 C 5,8 C 11,9 km/h (2 Bft)
10/12/2008 19:00 7,2 C 97 % 1001,8 hPa 2,6 l/m 5,5 km/h (1 Bft) N-NE 0,00 h 0,000 mm 0 W/m 6,8 C 6,4 C 8,9 km/h (2 Bft)
10/12/2008 20:00 7,3 C 97 % 1001,9 hPa 3,4 l/m 4,8 km/h (1 Bft) N-NE 0,00 h 0,000 mm 0 W/m 6,9 C 6,7 C 7,8 km/h (2 Bft)
10/12/2008 21:00 7,3 C 97 % 1001,8 hPa 1,6 l/m 4,5 km/h (1 Bft) N 0,00 h 0,000 mm 0 W/m 6,9 C 6,7 C 7,9 km/h (2 Bft)
10/12/2008 22:00 7,3 C 97 % 1001,8 hPa 2,2 l/m 4,5 km/h (1 Bft) N 0,00 h 0,000 mm 0 W/m 6,9 C 6,8 C 7,1 km/h (2 Bft)
10/12/2008 23:00 7,2 C 97 % 1001,8 hPa 4,0 l/m 3,7 km/h (1 Bft) N-NE 0,00 h 0,000 mm 0 W/m 6,8 C 6,9 C 6,1 km/h (2 Bft)
11/12/2008 00:00 7,2 C 97 % 1001,6 hPa 3,4 l/m 3,9 km/h (1 Bft) N 0,00 h 0,000 mm 0 W/m 6,7 C 6,8 C 6,8 km/h (2 Bft)
11/12/2008 01:00 6,8 C 97 % 1001,0 hPa 0,8 l/m 2,6 km/h (1 Bft) N 0,00 h 0,000 mm 0 W/m 6,4 C 6,7 C 4,5 km/h (1 Bft)
11/12/2008 02:00 6,8 C 97 % 1000,4 hPa 1,2 l/m 3,3 km/h (1 Bft) O 0,00 h 0,000 mm 0 W/m 6,4 C 6,5 C 5,1 km/h (1 Bft)
11/12/2008 03:00 6,7 C 97 % 1000,2 hPa 0,8 l/m 1,5 km/h (1 Bft) N-NO 0,00 h 0,000 mm 0 W/m 6,3 C 6,7 C 2,5 km/h (1 Bft)
11/12/2008 04:00 6,6 C 97 % 999,5 hPa 0,0 l/m 3,5 km/h (1 Bft) NO 0,00 h 0,000 mm 0 W/m 6,1 C 6,2 C 5,4 km/h (1 Bft)
11/12/2008 05:00 6,7 C 97 % 998,9 hPa 0,2 l/m 3,7 km/h (1 Bft) NO 0,00 h 0,000 mm 0 W/m 6,3 C 6,4 C 5,7 km/h (1 Bft)
11/12/2008 06:00 6,7 C 97 % 998,5 hPa 0,0 l/m 1,9 km/h (1 Bft) E-NE 0,00 h 0,000 mm 0 W/m 6,2 C 6,6 C 2,9 km/h (1 Bft)
11/12/2008 07:00 6,6 C 97 % 998,6 hPa 0,4 l/m 0,4 km/h (0 Bft) N-NE 0,00 h 0,000 mm 0 W/m 6,2 C 6,6 C 0,7 km/h (0 Bft)
11/12/2008 08:00 6,8 C 97 % 998,8 hPa 0,4 l/m 2,2 km/h (1 Bft) N 0,00 h 0,000 mm 16 W/m 6,3 C 6,7 C 3,9 km/h (1 Bft)
11/12/2008 09:00 7,1 C 97 % 998,7 hPa 1,4 l/m 1,8 km/h (1 Bft) N 0,00 h 0,000 mm 26 W/m 6,7 C 7,1 C 3,7 km/h (1 Bft)
11/12/2008 10:00 7,6 C 98 % 999,2 hPa 1,2 l/m 1,0 km/h (0 Bft) N 0,00 h 0,025 mm 65 W/m 7,3 C 7,6 C 2,0 km/h (1 Bft)
11/12/2008 11:00 8,3 C 98 % 999,1 hPa 1,0 l/m 0,9 km/h (0 Bft) N 0,00 h 0,025 mm 90 W/m 7,9 C 8,3 C 2,0 km/h (1 Bft)
11/12/2008 12:00 8,6 C 98 % 998,7 hPa 0,6 l/m 1,9 km/h (1 Bft) N 0,00 h 0,051 mm 74 W/m 8,2 C 8,6 C 3,8 km/h (1 Bft)
11/12/2008 13:00 8,3 C 98 % 998,6 hPa 1,0 l/m 0,8 km/h (0 Bft) N-NE 0,00 h 0,025 mm 55 W/m 7,9 C 8,3 C 1,5 km/h (1 Bft)
11/12/2008 14:00 8,4 C 98 % 998,4 hPa 1,0 l/m 1,0 km/h (0 Bft) N-NO 0,00 h 0,025 mm 61 W/m 8,1 C 8,4 C 1,8 km/h (1 Bft)
11/12/2008 15:00 8,3 C 98 % 998,6 hPa 3,0 l/m 0,9 km/h (0 Bft) N-NO 0,00 h 0,025 mm 25 W/m 8,0 C 8,3 C 1,4 km/h (1 Bft)
11/12/2008 16:00 8,0 C 98 % 998,8 hPa 3,2 l/m 0,4 km/h (0 Bft) N-NO 0,00 h 0,025 mm 9 W/m 7,7 C 8,0 C 0,8 km/h (0 Bft)
11/12/2008 17:00 7,8 C 98 % 998,8 hPa 1,4 l/m 0,2 km/h (0 Bft) N 0,00 h 0,000 mm 0 W/m 7,5 C 7,8 C 0,7 km/h (0 Bft)
11/12/2008 18:00 7,5 C 98 % 999,2 hPa 1,0 l/m 1,8 km/h (1 Bft) N 0,00 h 0,000 mm 0 W/m 7,2 C 7,5 C 2,7 km/h (1 Bft)
11/12/2008 19:00 7,2 C 98 % 999,3 hPa 0,8 l/m 3,0 km/h (1 Bft) NO 0,00 h 0,000 mm 0 W/m 6,9 C 7,0 C 4,6 km/h (1 Bft)
11/12/2008 20:00 7,0 C 98 % 999,3 hPa 0,0 l/m 1,8 km/h (1 Bft) NO 0,00 h 0,000 mm 0 W/m 6,7 C 7,0 C 2,9 km/h (1 Bft)
11/12/2008 21:00 6,9 C 98 % 999,5 hPa 0,2 l/m 2,5 km/h (1 Bft) O-NO 0,00 h 0,000 mm 0 W/m 6,6 C 6,8 C 3,8 km/h (1 Bft)
11/12/2008 22:00 6,8 C 98 % 1000,0 hPa 0,0 l/m 4,1 km/h (1 Bft) O-NO 0,00 h 0,000 mm 0 W/m 6,5 C 6,4 C 5,3 km/h (1 Bft)
11/12/2008 23:00 6,7 C 98 % 1000,1 hPa 0,2 l/m 2,9 km/h (1 Bft) O-NO 0,00 h 0,000 mm 0 W/m 6,4 C 6,5 C 4,3 km/h (1 Bft)
12/12/2008 00:00 6,8 C 98 % 1000,7 hPa 0,0 l/m 4,3 km/h (1 Bft) O-NO 0,00 h 0,000 mm 0 W/m 6,5 C 6,3 C 6,4 km/h (2 Bft)
12/12/2008 01:00 6,8 C 98 % 1000,5 hPa 0,0 l/m 2,8 km/h (1 Bft) O-NO 0,00 h 0,000 mm 0 W/m 6,5 C 6,7 C 4,3 km/h (1 Bft)
12/12/2008 02:00 6,3 C 98 % 1000,4 hPa 0,0 l/m 3,8 km/h (1 Bft) O 0,00 h 0,000 mm 0 W/m 6,0 C 5,8 C 4,9 km/h (1 Bft)
12/12/2008 03:00 5,9 C 98 % 1000,4 hPa 0,0 l/m 7,1 km/h (2 Bft) O 0,00 h 0,000 mm 0 W/m 5,6 C 4,4 C 8,9 km/h (2 Bft)
12/12/2008 04:00 5,1 C 97 % 1000,5 hPa 0,0 l/m 5,8 km/h (2 Bft) O 0,00 h 0,000 mm 0 W/m 4,8 C 4,0 C 8,4 km/h (2 Bft)
12/12/2008 05:00 4,8 C 98 % 1000,2 hPa 0,0 l/m 6,3 km/h (2 Bft) O 0,00 h 0,000 mm 0 W/m 4,5 C 3,5 C 8,5 km/h (2 Bft)
12/12/2008 06:00 4,9 C 98 % 1000,7 hPa 0,0 l/m 1,9 km/h (1 Bft) NO 0,00 h 0,000 mm 0 W/m 4,5 C 4,7 C 3,0 km/h (1 Bft)
12/12/2008 07:00 4,8 C 97 % 1001,2 hPa 0,0 l/m 2,8 km/h (1 Bft) NO 0,00 h 0,000 mm 6 W/m 4,4 C 4,6 C 3,9 km/h (1 Bft)
12/12/2008 08:00 5,7 C 98 % 1001,7 hPa 0,0 l/m 3,5 km/h (1 Bft) NO 0,87 h 0,000 mm 69 W/m 5,3 C 5,3 C 4,8 km/h (1 Bft)
12/12/2008 09:00 8,1 C 87 % 1002,2 hPa 0,0 l/m 0,5 km/h (0 Bft) NO 1,00 h 0,025 mm 194 W/m 6,0 C 8,1 C 1,0 km/h (0 Bft)
12/12/2008 10:00 10,6 C 75 % 1002,8 hPa 0,0 l/m 2,3 km/h (1 Bft) NO 1,00 h 0,076 mm 288 W/m 6,3 C 10,6 C 3,9 km/h (1 Bft)
12/12/2008 11:00 11,6 C 73 % 1002,8 hPa 0,0 l/m 2,5 km/h (1 Bft) S-SO 1,00 h 0,152 mm 354 W/m 6,9 C 11,6 C 4,2 km/h (1 Bft)
12/12/2008 12:00 12,1 C 71 % 1002,6 hPa 0,0 l/m 3,1 km/h (1 Bft) O-SO 1,00 h 0,178 mm 376 W/m 6,9 C 12,1 C 4,9 km/h (1 Bft)
12/12/2008 13:00 12,9 C 68 % 1002,4 hPa 0,0 l/m 3,5 km/h (1 Bft) S-SE 1,00 h 0,203 mm 345 W/m 7,1 C 12,9 C 5,5 km/h (1 Bft)
12/12/2008 14:00 13,1 C 70 % 1002,3 hPa 0,0 l/m 6,7 km/h (2 Bft) S 1,00 h 0,178 mm 267 W/m 7,6 C 13,1 C 8,7 km/h (2 Bft)
12/12/2008 15:00 12,2 C 71 % 1002,7 hPa 0,0 l/m 7,9 km/h (2 Bft) O-SO 1,00 h 0,152 mm 159 W/m 7,2 C 12,2 C 11,1 km/h (2 Bft)
12/12/2008 16:00 10,7 C 75 % 1003,3 hPa 0,0 l/m 7,8 km/h (2 Bft) O-SO 0,73 h 0,102 mm 39 W/m 6,4 C 10,4 C 11,1 km/h (2 Bft)
12/12/2008 17:00 8,3 C 79 % 1003,9 hPa 0,0 l/m 9,1 km/h (2 Bft) O 0,00 h 0,051 mm 0 W/m 4,9 C 6,8 C 12,9 km/h (3 Bft)
12/12/2008 18:00 7,7 C 83 % 1004,5 hPa 0,0 l/m 3,8 km/h (1 Bft) NO 0,00 h 0,025 mm 0 W/m 5,0 C 7,4 C 5,5 km/h (1 Bft)
12/12/2008 19:00 7,6 C 85 % 1005,3 hPa 0,0 l/m 3,2 km/h (1 Bft) NO 0,00 h 0,025 mm 0 W/m 5,3 C 7,4 C 4,6 km/h (1 Bft)
12/12/2008 20:00 7,4 C 84 % 1005,8 hPa 0,0 l/m 5,1 km/h (1 Bft) NO 0,00 h 0,025 mm 0 W/m 4,9 C 6,7 C 7,3 km/h (2 Bft)
12/12/2008 21:00 7,3 C 81 % 1006,2 hPa 0,0 l/m 2,2 km/h (1 Bft) NO 0,00 h 0,025 mm 0 W/m 4,2 C 7,3 C 3,3 km/h (1 Bft)
12/12/2008 22:00 6,6 C 80 % 1006,4 hPa 0,0 l/m 2,7 km/h (1 Bft) NO 0,00 h 0,025 mm 0 W/m 3,4 C 6,5 C 4,5 km/h (1 Bft)
12/12/2008 23:00 6,6 C 80 % 1006,8 hPa 0,0 l/m 4,7 km/h (1 Bft) O-NO 0,00 h 0,025 mm 0 W/m 3,4 C 6,1 C 7,0 km/h (2 Bft)
13/12/2008 00:00 6,8 C 79 % 1006,9 hPa 0,0 l/m 3,9 km/h (1 Bft) O-NO 0,00 h 0,025 mm 0 W/m 3,3 C 6,4 C 6,3 km/h (2 Bft)
13/12/2008 01:00 6,8 C 78 % 1006,9 hPa 0,0 l/m 3,6 km/h (1 Bft) O 0,00 h 0,025 mm 0 W/m 3,2 C 6,4 C 5,1 km/h (1 Bft)
13/12/2008 02:00 6,7 C 78 % 1007,1 hPa 0,0 l/m 4,7 km/h (1 Bft) O-NO 0,00 h 0,025 mm 0 W/m 3,1 C 6,2 C 6,3 km/h (2 Bft)
13/12/2008 03:00 6,6 C 77 % 1006,9 hPa 0,0 l/m 4,0 km/h (1 Bft) NO 0,00 h 0,025 mm 0 W/m 3,0 C 6,2 C 5,2 km/h (1 Bft)
13/12/2008 04:00 6,7 C 77 % 1006,8 hPa 0,0 l/m 4,6 km/h (1 Bft) O-NO 0,00 h 0,025 mm 0 W/m 3,1 C 6,2 C 6,1 km/h (2 Bft)
13/12/2008 05:00 6,6 C 77 % 1006,8 hPa 0,0 l/m 2,5 km/h (1 Bft) NO 0,00 h 0,025 mm 0 W/m 2,8 C 6,5 C 3,3 km/h (1 Bft)
13/12/2008 06:00 6,4 C 78 % 1007,1 hPa 0,0 l/m 2,8 km/h (1 Bft) NO 0,00 h 0,025 mm 0 W/m 2,9 C 6,2 C 4,1 km/h (1 Bft)
13/12/2008 07:00 6,8 C 78 % 1007,5 hPa 0,0 l/m 4,5 km/h (1 Bft) NO 0,00 h 0,025 mm 0 W/m 3,2 C 6,2 C 6,5 km/h (2 Bft)
13/12/2008 08:00 7,7 C 79 % 1007,5 hPa 0,0 l/m 4,8 km/h (1 Bft) NO 0,00 h 0,025 mm 18 W/m 4,3 C 7,2 C 6,7 km/h (2 Bft)
13/12/2008 09:00 8,3 C 80 % 1007,5 hPa 0,0 l/m 1,5 km/h (1 Bft) NO 0,00 h 0,025 mm 77 W/m 5,1 C 8,3 C 2,7 km/h (1 Bft)
13/12/2008 10:00 9,2 C 80 % 1007,6 hPa 0,0 l/m 0,5 km/h (0 Bft) N-NO 0,00 h 0,051 mm 64 W/m 5,9 C 9,2 C 1,2 km/h (1 Bft)
13/12/2008 11:00 10,1 C 77 % 1007,3 hPa 0,0 l/m 1,6 km/h (1 Bft) N-NO 0,52 h 0,025 mm 263 W/m 6,3 C 10,1 C 2,9 km/h (1 Bft)
13/12/2008 12:00 11,1 C 77 % 1006,5 hPa 0,0 l/m 2,2 km/h (1 Bft) E-NE 0,02 h 0,127 mm 143 W/m 7,2 C 11,1 C 3,6 km/h (1 Bft)
13/12/2008 13:00 10,4 C 81 % 1005,9 hPa 0,0 l/m 0,9 km/h (0 Bft) S 0,00 h 0,076 mm 92 W/m 7,2 C 10,4 C 1,8 km/h (1 Bft)
13/12/2008 14:00 9,9 C 85 % 1005,3 hPa 0,0 l/m 0,7 km/h (0 Bft) S 0,00 h 0,051 mm 65 W/m 7,4 C 9,9 C 1,7 km/h (1 Bft)
13/12/2008 15:00 9,8 C 86 % 1005,0 hPa 0,0 l/m 0,6 km/h (0 Bft) NE 0,07 h 0,025 mm 68 W/m 7,6 C 9,8 C 1,3 km/h (1 Bft)
13/12/2008 16:00 9,3 C 87 % 1005,1 hPa 0,0 l/m 1,6 km/h (1 Bft) NE 0,00 h 0,025 mm 13 W/m 7,3 C 9,3 C 3,2 km/h (1 Bft)
13/12/2008 17:00 8,7 C 87 % 1004,9 hPa 2,0 l/m 1,2 km/h (1 Bft) NE 0,00 h 0,000 mm 0 W/m 6,6 C 8,7 C 2,2 km/h (1 Bft)
13/12/2008 18:00 8,3 C 88 % 1004,9 hPa 2,4 l/m 2,3 km/h (1 Bft) N-NO 0,00 h 0,000 mm 0 W/m 6,5 C 8,2 C 4,2 km/h (1 Bft)
13/12/2008 19:00 7,6 C 90 % 1004,6 hPa 0,0 l/m 3,9 km/h (1 Bft) N 0,00 h 0,025 mm 0 W/m 6,1 C 7,4 C 6,4 km/h (2 Bft)
13/12/2008 20:00 7,0 C 91 % 1004,6 hPa 0,0 l/m 4,4 km/h (1 Bft) NE 0,00 h 0,025 mm 0 W/m 5,6 C 6,5 C 6,5 km/h (2 Bft)
13/12/2008 21:00 7,0 C 92 % 1004,4 hPa 4,6 l/m 3,7 km/h (1 Bft) N 0,00 h 0,025 mm 0 W/m 5,8 C 6,6 C 6,2 km/h (2 Bft)
13/12/2008 22:00 7,0 C 93 % 1004,4 hPa 0,8 l/m 3,1 km/h (1 Bft) N 0,00 h 0,000 mm 0 W/m 6,0 C 6,8 C 5,3 km/h (1 Bft)
13/12/2008 23:00 6,8 C 93 % 1003,9 hPa 2,4 l/m 4,5 km/h (1 Bft) N 0,00 h 0,000 mm 0 W/m 5,8 C 6,3 C 7,4 km/h (2 Bft)
14/12/2008 00:00 6,8 C 94 % 1003,3 hPa 1,2 l/m 9,0 km/h (2 Bft) N-NE 0,00 h 0,000 mm 0 W/m 5,9 C 5,1 C 14,1 km/h (3 Bft)
14/12/2008 01:00 6,5 C 95 % 1002,2 hPa 1,6 l/m 8,0 km/h (2 Bft) N 0,00 h 0,025 mm 0 W/m 5,8 C 5,1 C 13,3 km/h (3 Bft)
14/12/2008 02:00 6,6 C 95 % 1001,1 hPa 2,6 l/m 10,7 km/h (2 Bft) N-NE 0,00 h 0,000 mm 0 W/m 5,8 C 4,5 C 16,9 km/h (3 Bft)
14/12/2008 03:00 6,8 C 95 % 1001,0 hPa 4,8 l/m 10,0 km/h (2 Bft) NE 0,00 h 0,025 mm 0 W/m 6,1 C 4,9 C 14,8 km/h (3 Bft)
14/12/2008 04:00 7,0 C 96 % 1000,7 hPa 2,6 l/m 10,2 km/h (2 Bft) NE 0,00 h 0,025 mm 0 W/m 6,4 C 5,1 C 16,2 km/h (3 Bft)
14/12/2008 05:00 7,0 C 96 % 999,4 hPa 3,8 l/m 13,3 km/h (3 Bft) NE 0,00 h 0,025 mm 0 W/m 6,4 C 4,5 C 20,3 km/h (4 Bft)
14/12/2008 06:00 7,6 C 97 % 999,3 hPa 6,6 l/m 16,2 km/h (3 Bft) NE 0,00 h 0,025 mm 0 W/m 7,1 C 5,0 C 22,4 km/h (4 Bft)
14/12/2008 07:00 7,3 C 97 % 998,7 hPa 4,2 l/m 11,9 km/h (2 Bft) N-NE 0,00 h 0,025 mm 0 W/m 6,8 C 5,2 C 18,1 km/h (3 Bft)
14/12/2008 08:00 7,8 C 97 % 998,5 hPa 4,6 l/m 14,6 km/h (3 Bft) NE 0,00 h 0,000 mm 5 W/m 7,4 C 5,5 C 20,7 km/h (4 Bft)
14/12/2008 09:00 9,1 C 97 % 998,5 hPa 4,4 l/m 23,6 km/h (4 Bft) E 0,00 h 0,025 mm 9 W/m 8,6 C 5,9 C 34,1 km/h (5 Bft)
14/12/2008 10:00 9,3 C 97 % 998,7 hPa 2,4 l/m 21,2 km/h (4 Bft) E-NE 0,00 h 0,025 mm 13 W/m 8,9 C 6,4 C 29,3 km/h (5 Bft)
14/12/2008 11:00 9,2 C 98 % 998,6 hPa 1,8 l/m 22,6 km/h (4 Bft) E-NE 0,00 h 0,025 mm 15 W/m 8,8 C 6,1 C 31,0 km/h (5 Bft)
14/12/2008 12:00 9,4 C 97 % 998,4 hPa 0,0 l/m 22,5 km/h (4 Bft) E-NE 0,00 h 0,025 mm 16 W/m 9,0 C 6,5 C 30,4 km/h (5 Bft)
14/12/2008 13:00 9,4 C 97 % 997,9 hPa 0,2 l/m 17,1 km/h (3 Bft) NE 0,00 h 0,025 mm 20 W/m 8,9 C 7,0 C 24,5 km/h (4 Bft)
14/12/2008 14:00 9,5 C 97 % 997,3 hPa 0,0 l/m 17,6 km/h (3 Bft) NE 0,00 h 0,025 mm 24 W/m 9,0 C 7,0 C 25,1 km/h (4 Bft)
14/12/2008 15:00 9,9 C 95 % 996,9 hPa 0,2 l/m 16,0 km/h (3 Bft) NE 0,00 h 0,025 mm 14 W/m 9,2 C 7,9 C 22,8 km/h (4 Bft)
14/12/2008 16:00 10,4 C 93 % 996,6 hPa 0,0 l/m 21,6 km/h (4 Bft) NE 0,00 h 0,025 mm 9 W/m 9,2 C 10,4 C 30,4 km/h (5 Bft)
14/12/2008 17:00 10,6 C 90 % 996,1 hPa 0,0 l/m 22,4 km/h (4 Bft) NE 0,00 h 0,025 mm 0 W/m 9,0 C 10,0 C 31,5 km/h (5 Bft)
14/12/2008 18:00 10,5 C 79 % 996,0 hPa 0,2 l/m 22,4 km/h (4 Bft) E-NE 0,00 h 0,051 mm 0 W/m 7,0 C 9,8 C 30,6 km/h (5 Bft)
14/12/2008 19:00 10,3 C 88 % 996,4 hPa 0,2 l/m 19,1 km/h (3 Bft) NE 0,00 h 0,051 mm 0 W/m 8,3 C 9,9 C 26,6 km/h (4 Bft)
14/12/2008 20:00 8,6 C 91 % 997,3 hPa 11,4 l/m 8,5 km/h (2 Bft) S-SE 0,00 h 0,051 mm 0 W/m 7,2 C 7,5 C 12,6 km/h (3 Bft)
14/12/2008 21:00 6,7 C 92 % 997,3 hPa 5,0 l/m 5,0 km/h (1 Bft) N-NO 0,00 h 0,025 mm 0 W/m 5,5 C 6,0 C 7,9 km/h (2 Bft)
14/12/2008 22:00 7,3 C 93 % 997,5 hPa 3,6 l/m 3,8 km/h (1 Bft) N-NE 0,00 h 0,025 mm 0 W/m 6,2 C 6,9 C 5,9 km/h (2 Bft)
14/12/2008 23:00 7,1 C 94 % 997,8 hPa 3,4 l/m 2,6 km/h (1 Bft) N 0,00 h 0,000 mm 0 W/m 6,2 C 7,0 C 4,6 km/h (1 Bft)
Min-Date _ 08/12/08 08/12/08 14/12/08 - 08/12/08 - - - - 09/12/08 12/12/08 08/12/08
_ Min-Heure 02:31 13:11 18:30 - 00:06 - - - - 04:57 04:44 00:08
Minimum _ 4,3 C 30 % 995,9 hPa - 0,0 km/h (0 Bft) - - - - -6,7 C 1,9 C 0,0 km/h (0 Bft)
Max-Date _ 08/12/08 10/12/08 08/12/08 14/12/08 14/12/08 - 08/12/08 08/12/08 13/12/08 14/12/08 08/12/08 14/12/08
_ Max-Heure 13:19 11:22 10:45 20:43 17:35 - 08:04 13:00 11:54 17:31 13:19 11:54
Maximum _ 13,7 C 100 % 1024,9 hPa 11,4 l/m 37,0 km/h
NE (5 Bft)
- 0,02 h 0,229 mm 559 W/m 10,8 C 13,7 C 49,9 km/h
E-NE (6 Bft)
Moyenne _ 7,7 C 80 % 1007,1 hPa #148,6 l/m 5,5 km/h (1 Bft) NO #17:56 h #6,201 mm 100 W/m 4,1 C 7,0 C 8,2 km/h (2 Bft)
Roquefort les pins